createdAt,value
2023-05-24T00:00:11.211Z,73.67
2023-05-24T00:02:43.751Z,73.08
2023-05-24T00:05:16.775Z,73.87
2023-05-24T00:07:49.424Z,74.96
2023-05-24T00:10:22.206Z,75.77
2023-05-24T00:12:54.801Z,75.53
2023-05-24T00:15:27.233Z,76.24
2023-05-24T00:17:59.712Z,75.70
2023-05-24T00:20:32.575Z,76.24
2023-05-24T00:23:05.070Z,75.68
2023-05-24T00:25:37.641Z,76.85
2023-05-24T00:28:10.367Z,76.05
2023-05-24T00:30:43.264Z,75.64
2023-05-24T00:33:15.987Z,76.11
2023-05-24T00:35:48.678Z,76.30
2023-05-24T00:38:21.231Z,77.08
2023-05-24T00:40:56.445Z,77.78
2023-05-24T00:43:28.934Z,77.86
2023-05-24T00:46:26.437Z,79.66
2023-05-24T00:49:00.398Z,78.71
2023-05-24T00:51:33.959Z,78.54
2023-05-24T00:54:06.959Z,78.76
2023-05-24T00:56:39.638Z,79.53
2023-05-24T00:59:12.320Z,80.80
2023-05-24T01:01:46.990Z,80.67
2023-05-24T01:04:20.472Z,79.58
2023-05-24T01:07:09.275Z,79.64
2023-05-24T01:10:03.065Z,79.27
2023-05-24T01:12:58.668Z,80.11
2023-05-24T01:15:50.088Z,80.67
2023-05-24T01:18:33.748Z,80.75
2023-05-24T01:21:26.531Z,80.73
2023-05-24T01:24:25.889Z,81.69
2023-05-24T01:27:08.004Z,82.16
2023-05-24T01:29:40.684Z,82.81
2023-05-24T01:32:13.478Z,83.61
2023-05-24T01:34:45.959Z,83.42
2023-05-24T01:37:18.596Z,83.34
2023-05-24T01:39:51.416Z,84.22
2023-05-24T01:42:54.706Z,84.01
2023-05-24T01:45:44.454Z,84.24
2023-05-24T01:48:27.680Z,83.57
2023-05-24T01:51:01.696Z,83.34
2023-05-24T01:53:39.459Z,83.50
2023-05-24T01:56:13.163Z,83.55
2023-05-24T01:58:47.544Z,83.73
2023-05-24T02:01:20.113Z,83.94
2023-05-24T02:03:52.786Z,83.81
2023-05-24T02:06:25.475Z,84.61
2023-05-24T02:08:57.904Z,84.91
2023-05-24T02:11:30.452Z,85.39
2023-05-24T02:14:03.008Z,85.12
2023-05-24T02:16:42.576Z,85.78
2023-05-24T02:19:15.542Z,85.96
2023-05-24T02:21:48.126Z,86.51
2023-05-24T02:24:20.673Z,88.54
2023-05-24T02:26:54.893Z,88.07
2023-05-24T02:29:27.486Z,87.13
2023-05-24T02:31:59.927Z,86.88
2023-05-24T02:34:32.342Z,86.14
2023-05-24T02:37:05.380Z,86.36
2023-05-24T02:39:37.835Z,85.59
2023-05-24T02:42:11.475Z,85.45
2023-05-24T02:44:47.862Z,85.72
2023-05-24T02:47:20.442Z,85.80
2023-05-24T02:49:53.872Z,86.03
2023-05-24T02:52:26.768Z,86.17
2023-05-24T02:54:59.220Z,86.07
2023-05-24T02:57:34.119Z,86.78
2023-05-24T03:00:09.579Z,86.39
2023-05-24T03:02:42.330Z,86.61
2023-05-24T03:05:15.008Z,86.30
2023-05-24T03:07:47.539Z,86.51
2023-05-24T03:10:20.021Z,86.41
2023-05-24T03:12:52.488Z,86.89
2023-05-24T03:15:25.032Z,87.09
2023-05-24T03:17:57.516Z,87.86
2023-05-24T03:20:30.046Z,87.51
2023-05-24T03:23:02.629Z,87.45
2023-05-24T03:25:35.287Z,87.57
2023-05-24T03:28:07.773Z,87.65
2023-05-24T03:30:40.443Z,87.84
2023-05-24T03:33:13.165Z,87.78
2023-05-24T03:35:45.743Z,87.77
2023-05-24T03:38:18.269Z,87.39
2023-05-24T03:40:50.737Z,86.87
2023-05-24T03:43:23.377Z,86.92
2023-05-24T03:45:55.873Z,86.83
2023-05-24T03:48:28.421Z,88.04
2023-05-24T03:51:00.849Z,88.36
2023-05-24T03:53:33.339Z,87.56
2023-05-24T03:56:06.046Z,87.74
2023-05-24T03:58:38.647Z,87.52
2023-05-24T04:01:21.952Z,88.46
2023-05-24T04:04:03.178Z,88.39
2023-05-24T04:06:36.856Z,88.46
2023-05-24T04:09:10.044Z,87.92
2023-05-24T04:11:42.597Z,88.74
2023-05-24T04:14:15.156Z,88.50
2023-05-24T04:16:48.288Z,88.23
2023-05-24T04:19:21.225Z,88.12
2023-05-24T04:21:53.715Z,88.27
2023-05-24T04:24:26.236Z,89.11
2023-05-24T04:27:00.241Z,88.71
2023-05-24T04:29:33.895Z,88.14
2023-05-24T04:32:06.899Z,88.04
2023-05-24T04:34:42.827Z,87.67
2023-05-24T04:37:17.105Z,87.06
2023-05-24T04:39:49.595Z,86.40
2023-05-24T04:42:22.147Z,85.60
2023-05-24T04:44:54.545Z,85.90
2023-05-24T04:47:27.461Z,85.66
2023-05-24T04:49:59.938Z,86.16
2023-05-24T04:52:33.363Z,86.21
2023-05-24T04:55:06.309Z,85.94
2023-05-24T04:57:38.854Z,86.28
2023-05-24T05:00:12.007Z,85.17
2023-05-24T05:02:44.678Z,85.31
2023-05-24T05:05:17.371Z,85.29
2023-05-24T05:07:49.926Z,84.21
2023-05-24T05:10:23.904Z,84.20
2023-05-24T05:12:56.519Z,84.98
2023-05-24T05:15:29.395Z,84.12
2023-05-24T05:18:01.938Z,84.05
2023-05-24T05:20:34.652Z,83.40
2023-05-24T05:23:07.220Z,83.50
2023-05-24T05:25:39.691Z,84.02
2023-05-24T05:28:12.183Z,83.89
2023-05-24T05:30:44.727Z,84.10
2023-05-24T05:33:17.461Z,83.13
2023-05-24T05:35:50.907Z,82.95
2023-05-24T05:38:24.789Z,82.47
2023-05-24T05:40:57.301Z,82.34
2023-05-24T05:43:31.051Z,82.26
2023-05-24T05:46:03.667Z,81.65
2023-05-24T05:48:36.279Z,82.49
2023-05-24T05:51:09.214Z,81.22
2023-05-24T05:53:41.710Z,81.16
2023-05-24T05:56:14.155Z,81.41
2023-05-24T05:58:46.828Z,80.81
2023-05-24T06:01:19.245Z,81.27
2023-05-24T06:03:52.144Z,80.83
2023-05-24T06:06:24.593Z,79.60
2023-05-24T06:08:57.107Z,79.06
2023-05-24T06:11:29.608Z,78.41
2023-05-24T06:14:02.706Z,78.01
2023-05-24T06:16:36.558Z,78.65
2023-05-24T06:19:09.258Z,77.77
2023-05-24T06:21:47.253Z,77.02
2023-05-24T06:24:22.723Z,77.14
2023-05-24T06:26:55.846Z,77.34
2023-05-24T06:29:28.358Z,77.66
2023-05-24T06:32:01.007Z,76.05
2023-05-24T06:34:33.676Z,75.33
2023-05-24T06:37:06.145Z,75.05
2023-05-24T06:39:38.628Z,73.97
2023-05-24T06:42:11.156Z,74.05
2023-05-24T06:44:43.608Z,73.74
2023-05-24T06:47:16.186Z,73.35
2023-05-24T06:49:50.048Z,73.04
2023-05-24T06:52:22.884Z,72.26
2023-05-24T06:54:55.554Z,70.89
2023-05-24T06:57:28.065Z,71.44
2023-05-24T07:00:00.562Z,70.58
2023-05-24T07:02:33.101Z,71.97
2023-05-24T07:05:06.462Z,69.69
2023-05-24T07:07:40.341Z,70.17
2023-05-24T07:10:13.380Z,70.13
2023-05-24T07:12:46.064Z,69.53
2023-05-24T07:15:18.674Z,69.89
2023-05-24T07:17:51.118Z,68.34
2023-05-24T07:20:23.684Z,67.96
2023-05-24T07:22:56.987Z,66.45
2023-05-24T07:25:29.420Z,66.18
2023-05-24T07:28:01.853Z,64.45
2023-05-24T07:30:34.961Z,64.38
2023-05-24T07:33:07.583Z,64.54
2023-05-24T07:35:40.228Z,63.26
2023-05-24T07:38:12.739Z,64.01
2023-05-24T07:40:45.413Z,64.24
2023-05-24T07:43:18.070Z,62.42
2023-05-24T07:45:50.566Z,62.13
2023-05-24T07:48:25.995Z,60.60
2023-05-24T07:50:58.499Z,63.43
2023-05-24T07:53:31.434Z,62.70
2023-05-24T07:56:04.131Z,60.17
2023-05-24T07:58:38.448Z,61.19
2023-05-24T08:01:10.894Z,60.37
2023-05-24T08:03:43.621Z,59.49
2023-05-24T08:06:16.658Z,59.18
2023-05-24T08:08:49.155Z,59.84
2023-05-24T08:11:21.784Z,56.95
2023-05-24T08:13:54.242Z,57.51
2023-05-24T08:16:26.840Z,56.29
2023-05-24T08:18:59.378Z,56.95
2023-05-24T08:21:32.043Z,54.86
2023-05-24T08:24:06.157Z,54.35
2023-05-24T08:26:41.220Z,53.45
2023-05-24T08:29:13.697Z,53.11
2023-05-24T08:31:46.350Z,53.16
2023-05-24T08:34:19.235Z,52.48
2023-05-24T08:36:51.691Z,51.57
2023-05-24T08:39:24.206Z,52.75
2023-05-24T08:42:08.628Z,52.56
2023-05-24T08:44:52.676Z,52.65
2023-05-24T08:47:26.360Z,52.63
2023-05-24T08:49:59.590Z,53.01
2023-05-24T08:52:32.759Z,51.95
2023-05-24T08:55:05.887Z,50.60
2023-05-24T08:57:41.024Z,49.91
2023-05-24T09:00:14.171Z,49.69
2023-05-24T09:02:47.567Z,48.84
2023-05-24T09:05:22.064Z,48.99
2023-05-24T09:07:56.880Z,49.96
2023-05-24T09:10:41.208Z,48.35
2023-05-24T09:13:24.062Z,49.27
2023-05-24T09:15:56.847Z,51.00
2023-05-24T09:18:29.507Z,52.18
2023-05-24T09:21:02.066Z,51.82
2023-05-24T09:23:35.221Z,50.67
2023-05-24T09:26:09.742Z,49.67
2023-05-24T09:28:42.293Z,50.03
2023-05-24T09:31:14.835Z,49.61
2023-05-24T09:33:48.725Z,47.97
2023-05-24T09:36:21.927Z,48.04
2023-05-24T09:39:09.519Z,49.64
2023-05-24T09:41:44.042Z,50.05
2023-05-24T09:44:16.798Z,50.40
2023-05-24T09:46:49.428Z,50.67
2023-05-24T09:49:21.965Z,48.43
2023-05-24T09:51:54.601Z,46.27
2023-05-24T09:54:27.637Z,45.50
2023-05-24T09:57:03.488Z,45.51
2023-05-24T09:59:40.099Z,45.66
2023-05-24T10:02:12.839Z,45.34
2023-05-24T10:04:45.387Z,46.13
2023-05-24T10:07:18.445Z,45.35
2023-05-24T10:09:51.681Z,44.65
2023-05-24T10:12:25.682Z,43.67
2023-05-24T10:14:59.870Z,43.14
2023-05-24T10:17:32.495Z,41.86
2023-05-24T10:20:07.301Z,43.09
2023-05-24T10:22:47.608Z,42.55
2023-05-24T10:25:27.440Z,43.23
2023-05-24T10:28:07.322Z,45.55
2023-05-24T10:31:02.054Z,44.18
2023-05-24T10:33:36.137Z,44.08
2023-05-24T10:36:11.828Z,45.07
2023-05-24T10:38:47.093Z,43.95
2023-05-24T10:41:19.896Z,44.99
2023-05-24T10:44:07.846Z,42.75
2023-05-24T10:47:13.477Z,41.62
2023-05-24T10:49:57.719Z,39.51
2023-05-24T10:52:36.974Z,41.39
2023-05-24T10:55:11.706Z,41.58
2023-05-24T10:57:44.243Z,42.38
2023-05-24T11:03:08.911Z,43.92
2023-05-24T11:05:50.799Z,42.15
2023-05-24T11:08:25.751Z,42.34
2023-05-24T11:11:22.176Z,41.44
2023-05-24T11:14:00.536Z,40.73
2023-05-24T11:16:40.694Z,40.52
2023-05-24T11:19:22.406Z,41.23
2023-05-24T11:22:00.603Z,42.10
2023-05-24T11:24:33.971Z,41.45
2023-05-24T11:27:07.579Z,42.22
2023-05-24T11:29:45.028Z,41.66
2023-05-24T11:32:20.067Z,43.16
2023-05-24T11:34:52.859Z,42.65
2023-05-24T11:37:38.593Z,42.51
2023-05-24T11:40:18.503Z,42.15
2023-05-24T11:42:51.109Z,42.19
2023-05-24T11:45:23.677Z,41.09
2023-05-24T11:47:56.281Z,41.71
2023-05-24T11:50:28.957Z,41.43
2023-05-24T11:53:05.236Z,40.84
2023-05-24T11:55:40.233Z,41.83
2023-05-24T11:58:49.010Z,41.18
2023-05-24T12:01:25.728Z,40.51
2023-05-24T12:03:58.285Z,40.56
2023-05-24T12:06:38.804Z,39.45
2023-05-24T12:09:15.919Z,39.77
2023-05-24T12:11:50.531Z,41.20
2023-05-24T12:14:30.304Z,39.89
2023-05-24T12:17:03.508Z,41.63
2023-05-24T12:19:36.643Z,40.87
2023-05-24T12:22:10.687Z,41.03
2023-05-24T12:24:43.804Z,40.80
2023-05-24T12:27:16.320Z,41.13
2023-05-24T12:29:49.189Z,41.06
2023-05-24T12:32:21.970Z,40.58
2023-05-24T12:34:54.809Z,41.70
2023-05-24T12:37:30.830Z,40.93
2023-05-24T12:40:05.258Z,41.01
2023-05-24T12:42:37.799Z,41.63
2023-05-24T12:45:10.576Z,41.34
2023-05-24T12:47:43.158Z,41.83
2023-05-24T12:50:17.192Z,42.43
2023-05-24T12:52:53.207Z,42.38
2023-05-24T12:55:27.133Z,42.64
2023-05-24T12:58:02.484Z,42.84
2023-05-24T13:00:34.929Z,41.73
2023-05-24T13:03:07.575Z,42.68
2023-05-24T13:05:40.675Z,42.01
2023-05-24T13:08:13.622Z,41.75
2023-05-24T13:10:46.281Z,43.04
2023-05-24T13:13:18.769Z,40.90
2023-05-24T13:15:52.296Z,41.91
2023-05-24T13:18:26.228Z,41.96
2023-05-24T13:21:00.761Z,41.43
2023-05-24T13:23:36.134Z,41.75
2023-05-24T13:26:08.917Z,42.09
2023-05-24T13:28:58.701Z,43.00
2023-05-24T13:31:37.257Z,43.76
2023-05-24T13:34:13.136Z,44.36
2023-05-24T13:36:45.871Z,44.11
2023-05-24T13:39:19.711Z,43.66
2023-05-24T13:41:52.717Z,45.44
2023-05-24T13:44:25.317Z,43.63
2023-05-24T13:46:58.713Z,43.66
2023-05-24T13:49:31.366Z,43.11
2023-05-24T13:52:03.962Z,42.29
2023-05-24T13:54:36.625Z,42.00
2023-05-24T13:57:09.115Z,41.91
2023-05-24T13:59:41.845Z,42.14
2023-05-24T14:02:14.442Z,41.15
2023-05-24T14:04:47.055Z,40.59
2023-05-24T14:07:19.970Z,40.87
2023-05-24T14:09:52.837Z,41.10
2023-05-24T14:12:25.355Z,40.96
2023-05-24T14:15:00.019Z,40.66
2023-05-24T14:17:32.999Z,42.32
2023-05-24T14:20:07.249Z,40.88
2023-05-24T14:22:39.944Z,40.57
2023-05-24T14:25:12.486Z,39.83
2023-05-24T14:27:45.594Z,41.30
2023-05-24T14:30:18.150Z,40.51
2023-05-24T14:32:50.824Z,40.42
2023-05-24T14:35:23.402Z,40.14
2023-05-24T14:37:56.108Z,40.27
2023-05-24T14:40:29.119Z,39.67
2023-05-24T14:43:01.965Z,39.96
2023-05-24T14:45:34.484Z,40.39
2023-05-24T14:48:10.729Z,39.58
2023-05-24T14:50:43.366Z,37.85
2023-05-24T14:53:16.041Z,36.22
2023-05-24T14:55:48.727Z,35.45
2023-05-24T14:58:21.327Z,35.35
2023-05-24T15:00:53.869Z,36.63
2023-05-24T15:03:26.524Z,36.97
2023-05-24T15:06:08.013Z,36.31
2023-05-24T15:08:40.612Z,37.32
2023-05-24T15:11:13.005Z,38.93
2023-05-24T15:13:46.145Z,38.48
2023-05-24T15:16:18.702Z,40.04
2023-05-24T15:18:52.018Z,39.87
2023-05-24T15:21:24.441Z,40.32
2023-05-24T15:23:56.906Z,40.30
2023-05-24T15:26:29.341Z,41.35
2023-05-24T15:29:03.936Z,41.52
2023-05-24T15:31:36.853Z,42.00
2023-05-24T15:34:09.612Z,42.25
2023-05-24T15:36:42.356Z,41.81
2023-05-24T15:39:15.211Z,41.81
2023-05-24T15:41:47.680Z,42.47
2023-05-24T15:44:21.473Z,43.28
2023-05-24T15:46:54.068Z,43.79
2023-05-24T15:49:26.621Z,44.07
2023-05-24T15:52:04.263Z,44.49
2023-05-24T15:54:37.270Z,44.56
2023-05-24T15:57:09.836Z,44.42
2023-05-24T15:59:42.470Z,45.24
2023-05-24T16:02:15.036Z,45.41
2023-05-24T16:04:47.578Z,44.79
2023-05-24T16:07:20.191Z,45.04
2023-05-24T16:09:52.725Z,45.10
2023-05-24T16:15:00.559Z,45.34
2023-05-24T16:17:33.085Z,46.04
2023-05-24T16:20:06.310Z,45.97
2023-05-24T16:22:47.528Z,46.25
2023-05-24T16:25:21.131Z,45.89
2023-05-24T16:27:56.176Z,46.22
2023-05-24T16:30:31.288Z,46.02
2023-05-24T16:33:03.934Z,47.03
2023-05-24T16:35:36.451Z,47.35
2023-05-24T16:38:08.943Z,47.39
2023-05-24T16:40:42.417Z,47.44
2023-05-24T16:43:16.750Z,47.37
2023-05-24T16:45:49.264Z,47.49
2023-05-24T16:48:28.184Z,47.35
2023-05-24T16:51:01.000Z,47.21
2023-05-24T16:53:33.642Z,46.94
2023-05-24T16:56:06.190Z,46.56
2023-05-24T16:58:38.612Z,46.60
2023-05-24T17:01:11.170Z,46.24
2023-05-24T17:03:43.826Z,46.16
2023-05-24T17:06:16.374Z,46.47
2023-05-24T17:08:48.827Z,46.18
2023-05-24T17:11:23.041Z,46.84
2023-05-24T17:13:55.782Z,47.30
2023-05-24T17:16:28.682Z,47.09
2023-05-24T17:19:01.391Z,47.00
2023-05-24T17:21:33.953Z,47.18
2023-05-24T17:24:06.525Z,48.17
2023-05-24T17:26:40.339Z,47.02
2023-05-24T17:29:13.132Z,46.82
2023-05-24T17:31:46.044Z,47.13
2023-05-24T17:34:18.655Z,46.57
2023-05-24T17:36:51.151Z,47.68
2023-05-24T17:39:23.907Z,47.89
2023-05-24T17:41:56.378Z,48.34
2023-05-24T17:44:28.983Z,48.68
2023-05-24T17:47:04.608Z,49.09
2023-05-24T17:49:37.028Z,49.24
2023-05-24T17:52:09.558Z,49.13
2023-05-24T17:54:42.083Z,48.76
2023-05-24T17:57:14.501Z,49.18
2023-05-24T17:59:47.057Z,49.85
2023-05-24T18:02:19.532Z,49.64
2023-05-24T18:04:52.741Z,49.78
2023-05-24T18:07:25.302Z,51.45
2023-05-24T18:10:00.193Z,50.42
2023-05-24T18:12:33.171Z,50.89
2023-05-24T18:15:06.457Z,51.31
2023-05-24T18:17:38.906Z,51.28
2023-05-24T18:20:12.677Z,51.74
2023-05-24T18:22:45.238Z,51.13
2023-05-24T18:25:17.966Z,51.86
2023-05-24T18:27:50.534Z,51.72
2023-05-24T18:30:23.040Z,51.20
2023-05-24T18:35:35.756Z,51.36
2023-05-24T18:38:08.242Z,51.95
2023-05-24T18:40:40.830Z,51.98
2023-05-24T18:43:13.494Z,51.35
2023-05-24T18:45:46.048Z,51.88
2023-05-24T18:48:18.590Z,51.70
2023-05-24T18:50:52.057Z,52.11
2023-05-24T18:53:25.600Z,52.23
2023-05-24T18:55:58.228Z,52.58
2023-05-24T18:58:34.229Z,52.47
2023-05-24T19:01:06.867Z,52.56
2023-05-24T19:03:41.640Z,52.69
2023-05-24T19:06:14.643Z,53.85
2023-05-24T19:08:47.302Z,55.04
2023-05-24T19:11:23.068Z,54.50
2023-05-24T19:13:58.550Z,55.44
2023-05-24T19:16:31.169Z,55.22
2023-05-24T19:19:06.148Z,55.53
2023-05-24T19:21:38.735Z,57.01
2023-05-24T19:24:11.312Z,57.12
2023-05-24T19:26:43.953Z,57.71
2023-05-24T19:29:17.456Z,57.77
2023-05-24T19:31:52.945Z,57.82
2023-05-24T19:34:25.892Z,58.16
2023-05-24T19:36:58.652Z,58.21
2023-05-24T19:39:31.255Z,59.27
2023-05-24T19:42:04.563Z,59.06
2023-05-24T19:44:37.622Z,59.94
2023-05-24T19:47:10.185Z,59.82
2023-05-24T19:49:43.233Z,59.88
2023-05-24T19:52:18.512Z,60.49
2023-05-24T19:54:52.774Z,61.40
2023-05-24T19:57:25.451Z,61.02
2023-05-24T19:59:58.048Z,61.49
2023-05-24T20:02:30.490Z,61.22
2023-05-24T20:05:03.281Z,61.67
2023-05-24T20:07:35.751Z,62.78
2023-05-24T20:10:08.803Z,62.29
2023-05-24T20:12:42.638Z,62.54
2023-05-24T20:15:17.323Z,62.64
2023-05-24T20:17:49.827Z,62.51
2023-05-24T20:20:22.625Z,63.26
2023-05-24T20:22:55.223Z,63.40
2023-05-24T20:25:27.990Z,63.45
2023-05-24T20:28:00.630Z,63.48
2023-05-24T20:30:33.908Z,63.39
2023-05-24T20:33:06.488Z,64.21
2023-05-24T20:35:39.208Z,64.17
2023-05-24T20:38:11.887Z,64.51
2023-05-24T20:40:44.590Z,64.42
2023-05-24T20:43:17.109Z,64.82
2023-05-24T20:45:49.679Z,64.45
2023-05-24T20:48:23.332Z,65.07
2023-05-24T20:50:55.885Z,65.34
2023-05-24T20:53:28.445Z,65.68
2023-05-24T20:56:02.004Z,65.69
2023-05-24T20:58:34.516Z,50.72
2023-05-24T21:01:08.789Z,51.13
2023-05-24T21:03:41.471Z,51.19
2023-05-24T21:06:14.347Z,51.71
2023-05-24T21:08:47.187Z,51.55
2023-05-24T21:11:19.702Z,51.77
2023-05-24T21:13:52.225Z,51.91
2023-05-24T21:16:25.244Z,52.19
2023-05-24T21:19:00.386Z,52.16
2023-05-24T21:21:33.022Z,51.96
2023-05-24T21:24:05.648Z,52.37
2023-05-24T21:26:38.099Z,52.45
2023-05-24T21:29:13.097Z,52.62
2023-05-24T21:31:46.314Z,53.04
2023-05-24T21:34:19.144Z,53.17
2023-05-24T21:36:51.629Z,53.18
2023-05-24T21:39:24.158Z,53.53
2023-05-24T21:41:56.574Z,54.06
2023-05-24T21:44:29.017Z,54.42
2023-05-24T21:47:01.623Z,53.97
2023-05-24T21:49:34.046Z,54.08
2023-05-24T21:52:06.585Z,54.43
2023-05-24T21:54:39.024Z,54.71
2023-05-24T21:57:11.549Z,54.93
2023-05-24T21:59:44.039Z,54.92
2023-05-24T22:02:16.725Z,55.45
2023-05-24T22:04:49.430Z,55.69
2023-05-24T22:07:21.883Z,56.68
2023-05-24T22:09:54.376Z,56.80
2023-05-24T22:12:26.794Z,56.80
2023-05-24T22:15:00.891Z,56.66
2023-05-24T22:17:33.356Z,56.82
2023-05-24T22:20:06.651Z,56.58
2023-05-24T22:22:48.301Z,56.85
2023-05-24T22:25:21.039Z,57.40
2023-05-24T22:27:55.616Z,57.20
2023-05-24T22:30:28.102Z,57.14
2023-05-24T22:33:01.245Z,56.99
2023-05-24T22:35:33.730Z,57.61
2023-05-24T22:38:06.561Z,57.45
2023-05-24T22:40:41.971Z,57.48
2023-05-24T22:43:14.525Z,57.49
2023-05-24T22:45:47.199Z,57.91
2023-05-24T22:48:21.939Z,57.79
2023-05-24T22:50:57.168Z,58.08
2023-05-24T22:53:29.690Z,58.07
2023-05-24T22:56:02.283Z,58.03
2023-05-24T22:58:34.785Z,58.80
2023-05-24T23:01:07.372Z,58.82
2023-05-24T23:03:39.928Z,58.87
2023-05-24T23:06:12.387Z,58.87
2023-05-24T23:08:44.826Z,59.28
2023-05-24T23:11:18.064Z,59.39
2023-05-24T23:13:52.209Z,59.58
2023-05-24T23:16:24.636Z,60.42
2023-05-24T23:18:57.412Z,60.68
2023-05-24T23:21:29.943Z,60.83
2023-05-24T23:24:05.847Z,60.69
2023-05-24T23:26:38.351Z,60.49
2023-05-24T23:29:10.809Z,61.23
2023-05-24T23:31:43.411Z,60.91
2023-05-24T23:34:16.080Z,60.72
2023-05-24T23:36:48.594Z,61.20
2023-05-24T23:39:21.416Z,61.85
2023-05-24T23:41:54.072Z,61.52
2023-05-24T23:44:26.590Z,61.81
2023-05-24T23:46:59.158Z,62.06
2023-05-24T23:49:31.694Z,61.60
2023-05-24T23:52:04.494Z,61.94
2023-05-24T23:54:36.968Z,62.42
2023-05-24T23:57:09.650Z,62.31
2023-05-24T23:59:42.102Z,62.19
